sensor_id;sensor_type;location;lat;lon;timestamp;P1;durP1;ratioP1;P2;durP2;ratioP2
37777;SDS011;23615;51.506;7.678;2023-10-31T00:00:39;0.20;;;0.20;;
37777;SDS011;23615;51.506;7.678;2023-10-31T00:03:04;0.20;;;0.20;;
37777;SDS011;23615;51.506;7.678;2023-10-31T00:05:29;0.20;;;0.20;;
37777;SDS011;23615;51.506;7.678;2023-10-31T00:07:55;0.50;;;0.20;;
37777;SDS011;23615;51.506;7.678;2023-10-31T00:10:20;0.30;;;0.30;;
37777;SDS011;23615;51.506;7.678;2023-10-31T00:12:45;0.50;;;0.20;;
37777;SDS011;23615;51.506;7.678;2023-10-31T00:15:10;0.20;;;0.20;;
37777;SDS011;23615;51.506;7.678;2023-10-31T00:17:36;0.30;;;0.27;;
37777;SDS011;23615;51.506;7.678;2023-10-31T00:20:01;0.33;;;0.30;;
37777;SDS011;23615;51.506;7.678;2023-10-31T00:22:26;0.60;;;0.50;;
37777;SDS011;23615;51.506;7.678;2023-10-31T00:24:51;2.60;;;0.70;;
37777;SDS011;23615;51.506;7.678;2023-10-31T00:27:17;1.17;;;0.93;;
37777;SDS011;23615;51.506;7.678;2023-10-31T00:29:42;1.10;;;1.00;;
37777;SDS011;23615;51.506;7.678;2023-10-31T00:32:07;0.97;;;0.97;;
37777;SDS011;23615;51.506;7.678;2023-10-31T00:34:33;1.30;;;1.10;;
37777;SDS011;23615;51.506;7.678;2023-10-31T00:36:58;1.27;;;1.17;;
37777;SDS011;23615;51.506;7.678;2023-10-31T00:39:23;0.90;;;0.80;;
37777;SDS011;23615;51.506;7.678;2023-10-31T00:41:48;0.90;;;0.90;;
37777;SDS011;23615;51.506;7.678;2023-10-31T00:44:14;1.10;;;1.10;;
37777;SDS011;23615;51.506;7.678;2023-10-31T00:46:39;0.90;;;0.90;;
37777;SDS011;23615;51.506;7.678;2023-10-31T00:49:04;1.00;;;0.90;;
37777;SDS011;23615;51.506;7.678;2023-10-31T00:51:30;1.23;;;1.13;;
37777;SDS011;23615;51.506;7.678;2023-10-31T00:53:55;1.70;;;0.97;;
37777;SDS011;23615;51.506;7.678;2023-10-31T00:56:21;1.23;;;0.98;;
37777;SDS011;23615;51.506;7.678;2023-10-31T00:58:46;0.90;;;0.80;;
37777;SDS011;23615;51.506;7.678;2023-10-31T01:01:11;1.30;;;0.90;;
37777;SDS011;23615;51.506;7.678;2023-10-31T01:03:36;1.03;;;0.80;;
37777;SDS011;23615;51.506;7.678;2023-10-31T01:06:02;0.60;;;0.60;;
37777;SDS011;23615;51.506;7.678;2023-10-31T01:08:28;0.73;;;0.70;;
37777;SDS011;23615;51.506;7.678;2023-10-31T01:10:53;0.80;;;0.80;;
37777;SDS011;23615;51.506;7.678;2023-10-31T01:13:18;1.00;;;1.00;;
37777;SDS011;23615;51.506;7.678;2023-10-31T01:15:44;1.90;;;1.10;;
37777;SDS011;23615;51.506;7.678;2023-10-31T01:18:09;1.10;;;1.07;;
37777;SDS011;23615;51.506;7.678;2023-10-31T01:20:35;1.10;;;0.93;;
37777;SDS011;23615;51.506;7.678;2023-10-31T01:23:01;0.90;;;0.60;;
37777;SDS011;23615;51.506;7.678;2023-10-31T01:25:26;0.83;;;0.40;;
37777;SDS011;23615;51.506;7.678;2023-10-31T01:27:51;0.40;;;0.40;;
37777;SDS011;23615;51.506;7.678;2023-10-31T01:30:17;1.00;;;0.30;;
37777;SDS011;23615;51.506;7.678;2023-10-31T01:32:42;0.50;;;0.50;;
37777;SDS011;23615;51.506;7.678;2023-10-31T01:35:07;1.30;;;0.63;;
37777;SDS011;23615;51.506;7.678;2023-10-31T01:37:33;0.60;;;0.30;;
37777;SDS011;23615;51.506;7.678;2023-10-31T01:39:58;0.50;;;0.20;;
37777;SDS011;23615;51.506;7.678;2023-10-31T01:42:23;0.70;;;0.43;;
37777;SDS011;23615;51.506;7.678;2023-10-31T01:44:49;0.37;;;0.20;;
37777;SDS011;23615;51.506;7.678;2023-10-31T01:47:14;0.28;;;0.20;;
37777;SDS011;23615;51.506;7.678;2023-10-31T01:49:40;0.87;;;0.20;;
37777;SDS011;23615;51.506;7.678;2023-10-31T01:52:05;0.13;;;0.13;;
37777;SDS011;23615;51.506;7.678;2023-10-31T01:54:34;0.65;;;0.20;;
37777;SDS011;23615;51.506;7.678;2023-10-31T01:57:01;0.95;;;0.30;;
37777;SDS011;23615;51.506;7.678;2023-10-31T01:59:27;0.43;;;0.20;;
37777;SDS011;23615;51.506;7.678;2023-10-31T02:01:54;0.70;;;0.20;;
37777;SDS011;23615;51.506;7.678;2023-10-31T02:04:20;0.80;;;0.40;;
37777;SDS011;23615;51.506;7.678;2023-10-31T02:06:45;0.87;;;0.30;;
37777;SDS011;23615;51.506;7.678;2023-10-31T02:09:10;1.80;;;0.40;;
37777;SDS011;23615;51.506;7.678;2023-10-31T02:11:36;1.35;;;0.65;;
37777;SDS011;23615;51.506;7.678;2023-10-31T02:14:02;1.27;;;0.50;;
37777;SDS011;23615;51.506;7.678;2023-10-31T02:16:27;1.47;;;0.70;;
37777;SDS011;23615;51.506;7.678;2023-10-31T02:18:52;1.08;;;0.60;;
37777;SDS011;23615;51.506;7.678;2023-10-31T02:21:19;0.95;;;0.70;;
37777;SDS011;23615;51.506;7.678;2023-10-31T02:26:22;1.15;;;0.80;;
37777;SDS011;23615;51.506;7.678;2023-10-31T02:28:48;1.57;;;1.27;;
37777;SDS011;23615;51.506;7.678;2023-10-31T02:31:13;1.38;;;1.20;;
37777;SDS011;23615;51.506;7.678;2023-10-31T02:33:39;1.35;;;1.10;;
37777;SDS011;23615;51.506;7.678;2023-10-31T02:36:04;2.50;;;1.40;;
37777;SDS011;23615;51.506;7.678;2023-10-31T02:38:29;2.00;;;1.60;;
37777;SDS011;23615;51.506;7.678;2023-10-31T02:40:54;2.07;;;1.50;;
37777;SDS011;23615;51.506;7.678;2023-10-31T02:43:20;1.33;;;1.23;;
37777;SDS011;23615;51.506;7.678;2023-10-31T02:45:45;1.67;;;1.37;;
37777;SDS011;23615;51.506;7.678;2023-10-31T02:48:10;1.70;;;1.13;;
37777;SDS011;23615;51.506;7.678;2023-10-31T02:50:35;2.30;;;1.17;;
37777;SDS011;23615;51.506;7.678;2023-10-31T02:53:01;1.97;;;0.73;;
37777;SDS011;23615;51.506;7.678;2023-10-31T02:55:27;1.10;;;0.80;;
37777;SDS011;23615;51.506;7.678;2023-10-31T02:57:52;1.80;;;0.70;;
37777;SDS011;23615;51.506;7.678;2023-10-31T03:00:17;3.70;;;0.80;;
37777;SDS011;23615;51.506;7.678;2023-10-31T03:02:43;1.00;;;0.60;;
37777;SDS011;23615;51.506;7.678;2023-10-31T03:05:08;1.40;;;0.50;;
37777;SDS011;23615;51.506;7.678;2023-10-31T03:07:33;2.10;;;0.47;;
37777;SDS011;23615;51.506;7.678;2023-10-31T03:09:58;0.90;;;0.40;;
37777;SDS011;23615;51.506;7.678;2023-10-31T03:12:24;2.00;;;0.50;;
37777;SDS011;23615;51.506;7.678;2023-10-31T03:14:49;1.47;;;0.33;;
37777;SDS011;23615;51.506;7.678;2023-10-31T03:17:14;0.60;;;0.30;;
37777;SDS011;23615;51.506;7.678;2023-10-31T03:19:39;0.33;;;0.30;;
37777;SDS011;23615;51.506;7.678;2023-10-31T03:22:05;0.23;;;0.20;;
37777;SDS011;23615;51.506;7.678;2023-10-31T03:24:31;0.40;;;0.25;;
37777;SDS011;23615;51.506;7.678;2023-10-31T03:26:56;0.67;;;0.30;;
37777;SDS011;23615;51.506;7.678;2023-10-31T03:29:21;0.40;;;0.20;;
37777;SDS011;23615;51.506;7.678;2023-10-31T03:31:47;1.27;;;0.33;;
37777;SDS011;23615;51.506;7.678;2023-10-31T03:34:12;0.50;;;0.30;;
37777;SDS011;23615;51.506;7.678;2023-10-31T03:36:37;0.97;;;0.20;;
37777;SDS011;23615;51.506;7.678;2023-10-31T03:39:02;1.30;;;0.50;;
37777;SDS011;23615;51.506;7.678;2023-10-31T03:41:28;0.70;;;0.43;;
37777;SDS011;23615;51.506;7.678;2023-10-31T03:43:53;2.07;;;0.80;;
37777;SDS011;23615;51.506;7.678;2023-10-31T03:46:18;1.20;;;0.90;;
37777;SDS011;23615;51.506;7.678;2023-10-31T03:48:44;1.43;;;1.10;;
37777;SDS011;23615;51.506;7.678;2023-10-31T03:51:09;1.92;;;1.17;;
37777;SDS011;23615;51.506;7.678;2023-10-31T03:53:34;3.03;;;1.73;;
37777;SDS011;23615;51.506;7.678;2023-10-31T03:55:59;3.67;;;2.00;;
37777;SDS011;23615;51.506;7.678;2023-10-31T03:58:25;2.67;;;1.90;;
37777;SDS011;23615;51.506;7.678;2023-10-31T04:00:50;2.00;;;1.40;;
37777;SDS011;23615;51.506;7.678;2023-10-31T04:03:15;4.57;;;2.10;;
37777;SDS011;23615;51.506;7.678;2023-10-31T04:05:41;2.30;;;2.20;;
37777;SDS011;23615;51.506;7.678;2023-10-31T04:08:06;2.43;;;2.20;;
37777;SDS011;23615;51.506;7.678;2023-10-31T04:10:31;2.73;;;2.10;;
37777;SDS011;23615;51.506;7.678;2023-10-31T04:12:57;2.67;;;2.37;;
37777;SDS011;23615;51.506;7.678;2023-10-31T04:15:22;5.17;;;2.60;;
37777;SDS011;23615;51.506;7.678;2023-10-31T04:17:47;3.90;;;2.60;;
37777;SDS011;23615;51.506;7.678;2023-10-31T04:20:12;3.40;;;2.83;;
37777;SDS011;23615;51.506;7.678;2023-10-31T04:22:38;3.77;;;2.77;;
37777;SDS011;23615;51.506;7.678;2023-10-31T04:25:03;5.73;;;2.53;;
37777;SDS011;23615;51.506;7.678;2023-10-31T04:27:29;4.88;;;2.20;;
37777;SDS011;23615;51.506;7.678;2023-10-31T04:29:54;2.13;;;1.60;;
37777;SDS011;23615;51.506;7.678;2023-10-31T04:32:20;3.17;;;1.67;;
37777;SDS011;23615;51.506;7.678;2023-10-31T04:34:45;6.40;;;2.07;;
37777;SDS011;23615;51.506;7.678;2023-10-31T04:37:10;2.03;;;1.63;;
37777;SDS011;23615;51.506;7.678;2023-10-31T04:39:35;2.20;;;1.80;;
37777;SDS011;23615;51.506;7.678;2023-10-31T04:42:01;1.90;;;1.60;;
37777;SDS011;23615;51.506;7.678;2023-10-31T04:44:26;2.90;;;1.60;;
37777;SDS011;23615;51.506;7.678;2023-10-31T04:46:51;1.80;;;1.67;;
37777;SDS011;23615;51.506;7.678;2023-10-31T04:49:17;2.47;;;1.80;;
37777;SDS011;23615;51.506;7.678;2023-10-31T04:51:42;2.30;;;2.00;;
37777;SDS011;23615;51.506;7.678;2023-10-31T04:54:08;2.25;;;1.90;;
37777;SDS011;23615;51.506;7.678;2023-10-31T04:56:33;2.90;;;2.15;;
37777;SDS011;23615;51.506;7.678;2023-10-31T04:58:58;2.33;;;2.13;;
37777;SDS011;23615;51.506;7.678;2023-10-31T05:01:24;3.50;;;2.28;;
37777;SDS011;23615;51.506;7.678;2023-10-31T05:03:50;3.20;;;2.13;;
37777;SDS011;23615;51.506;7.678;2023-10-31T05:06:18;2.73;;;2.23;;
37777;SDS011;23615;51.506;7.678;2023-10-31T05:08:45;2.55;;;2.35;;
37777;SDS011;23615;51.506;7.678;2023-10-31T05:11:10;2.93;;;2.20;;
37777;SDS011;23615;51.506;7.678;2023-10-31T05:13:35;2.47;;;2.27;;
37777;SDS011;23615;51.506;7.678;2023-10-31T05:16:01;2.90;;;2.20;;
37777;SDS011;23615;51.506;7.678;2023-10-31T05:18:26;3.87;;;2.83;;
37777;SDS011;23615;51.506;7.678;2023-10-31T05:20:51;4.33;;;2.63;;
37777;SDS011;23615;51.506;7.678;2023-10-31T05:23:17;2.80;;;2.23;;
37777;SDS011;23615;51.506;7.678;2023-10-31T05:25:42;2.63;;;2.15;;
37777;SDS011;23615;51.506;7.678;2023-10-31T05:28:08;2.75;;;2.33;;
37777;SDS011;23615;51.506;7.678;2023-10-31T05:30:33;3.45;;;2.22;;
37777;SDS011;23615;51.506;7.678;2023-10-31T05:32:58;3.50;;;1.80;;
37777;SDS011;23615;51.506;7.678;2023-10-31T05:35:23;1.33;;;1.23;;
37777;SDS011;23615;51.506;7.678;2023-10-31T05:37:50;2.30;;;1.83;;
37777;SDS011;23615;51.506;7.678;2023-10-31T05:40:15;2.50;;;1.70;;
37777;SDS011;23615;51.506;7.678;2023-10-31T05:42:41;1.42;;;1.33;;
37777;SDS011;23615;51.506;7.678;2023-10-31T05:45:06;1.67;;;1.40;;
37777;SDS011;23615;51.506;7.678;2023-10-31T05:47:32;1.67;;;1.43;;
37777;SDS011;23615;51.506;7.678;2023-10-31T05:50:00;1.92;;;1.33;;
37777;SDS011;23615;51.506;7.678;2023-10-31T05:52:28;2.38;;;1.50;;
37777;SDS011;23615;51.506;7.678;2023-10-31T05:54:54;2.30;;;1.48;;
37777;SDS011;23615;51.506;7.678;2023-10-31T05:57:20;2.40;;;1.70;;
37777;SDS011;23615;51.506;7.678;2023-10-31T05:59:45;1.60;;;1.50;;
37777;SDS011;23615;51.506;7.678;2023-10-31T06:02:11;3.07;;;1.97;;
37777;SDS011;23615;51.506;7.678;2023-10-31T06:04:36;3.27;;;2.27;;
37777;SDS011;23615;51.506;7.678;2023-10-31T06:07:01;2.47;;;1.93;;
37777;SDS011;23615;51.506;7.678;2023-10-31T06:09:27;2.75;;;2.00;;
37777;SDS011;23615;51.506;7.678;2023-10-31T06:11:52;3.30;;;2.33;;
37777;SDS011;23615;51.506;7.678;2023-10-31T06:14:18;4.07;;;2.70;;
37777;SDS011;23615;51.506;7.678;2023-10-31T06:16:43;2.70;;;2.33;;
37777;SDS011;23615;51.506;7.678;2023-10-31T06:19:09;2.95;;;1.80;;
37777;SDS011;23615;51.506;7.678;2023-10-31T06:21:35;1.85;;;1.75;;
37777;SDS011;23615;51.506;7.678;2023-10-31T06:24:00;1.67;;;1.57;;
37777;SDS011;23615;51.506;7.678;2023-10-31T06:26:26;3.13;;;1.70;;
37777;SDS011;23615;51.506;7.678;2023-10-31T06:28:51;2.37;;;2.17;;
37777;SDS011;23615;51.506;7.678;2023-10-31T06:31:16;3.20;;;2.90;;
37777;SDS011;23615;51.506;7.678;2023-10-31T06:33:42;3.30;;;2.87;;
37777;SDS011;23615;51.506;7.678;2023-10-31T06:36:07;5.20;;;3.58;;
37777;SDS011;23615;51.506;7.678;2023-10-31T06:38:33;4.57;;;3.60;;
37777;SDS011;23615;51.506;7.678;2023-10-31T06:40:58;4.45;;;3.83;;
37777;SDS011;23615;51.506;7.678;2023-10-31T06:43:23;4.60;;;4.20;;
37777;SDS011;23615;51.506;7.678;2023-10-31T06:45:49;6.27;;;4.77;;
37777;SDS011;23615;51.506;7.678;2023-10-31T06:48:14;6.37;;;5.53;;
37777;SDS011;23615;51.506;7.678;2023-10-31T06:50:39;7.10;;;5.80;;
37777;SDS011;23615;51.506;7.678;2023-10-31T06:53:05;6.93;;;6.23;;
37777;SDS011;23615;51.506;7.678;2023-10-31T06:55:30;8.25;;;6.65;;
37777;SDS011;23615;51.506;7.678;2023-10-31T06:57:55;8.93;;;6.57;;
37777;SDS011;23615;51.506;7.678;2023-10-31T07:00:20;8.37;;;6.33;;
37777;SDS011;23615;51.506;7.678;2023-10-31T07:02:46;6.83;;;6.13;;
37777;SDS011;23615;51.506;7.678;2023-10-31T07:05:12;7.53;;;6.60;;
37777;SDS011;23615;51.506;7.678;2023-10-31T07:07:38;7.38;;;6.55;;
37777;SDS011;23615;51.506;7.678;2023-10-31T07:10:03;8.90;;;7.10;;
37777;SDS011;23615;51.506;7.678;2023-10-31T07:12:29;8.82;;;7.88;;
37777;SDS011;23615;51.506;7.678;2023-10-31T07:14:54;9.63;;;8.63;;
37777;SDS011;23615;51.506;7.678;2023-10-31T07:17:19;8.83;;;7.97;;
37777;SDS011;23615;51.506;7.678;2023-10-31T07:19:45;9.00;;;7.60;;
37777;SDS011;23615;51.506;7.678;2023-10-31T07:22:10;9.73;;;8.20;;
37777;SDS011;23615;51.506;7.678;2023-10-31T07:24:35;8.83;;;8.03;;
37777;SDS011;23615;51.506;7.678;2023-10-31T07:27:01;9.43;;;8.40;;
37777;SDS011;23615;51.506;7.678;2023-10-31T07:29:26;8.67;;;7.17;;
37777;SDS011;23615;51.506;7.678;2023-10-31T07:31:51;8.47;;;7.30;;
37777;SDS011;23615;51.506;7.678;2023-10-31T07:34:17;8.70;;;7.50;;
37777;SDS011;23615;51.506;7.678;2023-10-31T07:36:42;10.50;;;8.10;;
37777;SDS011;23615;51.506;7.678;2023-10-31T07:39:07;8.23;;;7.37;;
37777;SDS011;23615;51.506;7.678;2023-10-31T07:41:32;9.23;;;7.47;;
37777;SDS011;23615;51.506;7.678;2023-10-31T07:43:58;9.83;;;7.50;;
37777;SDS011;23615;51.506;7.678;2023-10-31T07:46:23;8.30;;;7.20;;
37777;SDS011;23615;51.506;7.678;2023-10-31T07:48:48;8.13;;;7.07;;
37777;SDS011;23615;51.506;7.678;2023-10-31T07:51:14;6.85;;;6.15;;
37777;SDS011;23615;51.506;7.678;2023-10-31T07:53:40;6.93;;;6.23;;
37777;SDS011;23615;51.506;7.678;2023-10-31T07:56:13;6.95;;;6.15;;
37777;SDS011;23615;51.506;7.678;2023-10-31T07:58:39;6.82;;;5.78;;
37777;SDS011;23615;51.506;7.678;2023-10-31T08:01:05;6.87;;;5.63;;
37777;SDS011;23615;51.506;7.678;2023-10-31T08:03:30;5.82;;;5.22;;
37777;SDS011;23615;51.506;7.678;2023-10-31T08:05:55;6.00;;;5.33;;
37777;SDS011;23615;51.506;7.678;2023-10-31T08:08:20;6.60;;;4.83;;
37777;SDS011;23615;51.506;7.678;2023-10-31T08:10:46;7.20;;;5.83;;
37777;SDS011;23615;51.506;7.678;2023-10-31T08:13:11;5.47;;;4.97;;
37777;SDS011;23615;51.506;7.678;2023-10-31T08:15:36;6.57;;;5.07;;
37777;SDS011;23615;51.506;7.678;2023-10-31T08:18:01;6.30;;;4.73;;
37777;SDS011;23615;51.506;7.678;2023-10-31T08:20:27;4.67;;;4.17;;
37777;SDS011;23615;51.506;7.678;2023-10-31T08:22:57;4.97;;;4.57;;
37777;SDS011;23615;51.506;7.678;2023-10-31T08:25:23;4.33;;;3.93;;
37777;SDS011;23615;51.506;7.678;2023-10-31T08:27:48;6.03;;;4.00;;
37777;SDS011;23615;51.506;7.678;2023-10-31T08:30:13;4.40;;;4.00;;
37777;SDS011;23615;51.506;7.678;2023-10-31T08:32:39;4.17;;;3.77;;
37777;SDS011;23615;51.506;7.678;2023-10-31T08:35:04;3.57;;;3.27;;
37777;SDS011;23615;51.506;7.678;2023-10-31T08:37:30;4.23;;;3.87;;
37777;SDS011;23615;51.506;7.678;2023-10-31T08:39:55;4.87;;;3.67;;
37777;SDS011;23615;51.506;7.678;2023-10-31T08:42:20;4.68;;;3.47;;
37777;SDS011;23615;51.506;7.678;2023-10-31T08:44:45;4.53;;;3.70;;
37777;SDS011;23615;51.506;7.678;2023-10-31T08:47:11;4.00;;;3.53;;
37777;SDS011;23615;51.506;7.678;2023-10-31T08:49:37;4.20;;;3.90;;
37777;SDS011;23615;51.506;7.678;2023-10-31T08:52:02;4.33;;;3.80;;
37777;SDS011;23615;51.506;7.678;2023-10-31T08:54:29;4.80;;;4.37;;
37777;SDS011;23615;51.506;7.678;2023-10-31T08:56:54;5.60;;;4.53;;
37777;SDS011;23615;51.506;7.678;2023-10-31T08:59:19;5.43;;;4.93;;
37777;SDS011;23615;51.506;7.678;2023-10-31T09:01:44;4.80;;;4.30;;
37777;SDS011;23615;51.506;7.678;2023-10-31T09:04:10;5.00;;;4.50;;
37777;SDS011;23615;51.506;7.678;2023-10-31T09:06:35;5.35;;;4.85;;
37777;SDS011;23615;51.506;7.678;2023-10-31T09:09:01;4.50;;;4.10;;
37777;SDS011;23615;51.506;7.678;2023-10-31T09:11:26;4.57;;;4.17;;
37777;SDS011;23615;51.506;7.678;2023-10-31T09:13:51;4.50;;;4.10;;
37777;SDS011;23615;51.506;7.678;2023-10-31T09:16:16;4.32;;;3.88;;
37777;SDS011;23615;51.506;7.678;2023-10-31T09:18:42;4.37;;;3.97;;
37777;SDS011;23615;51.506;7.678;2023-10-31T09:21:08;4.00;;;3.70;;
37777;SDS011;23615;51.506;7.678;2023-10-31T09:23:34;4.30;;;3.70;;
37777;SDS011;23615;51.506;7.678;2023-10-31T09:25:59;3.60;;;3.27;;
37777;SDS011;23615;51.506;7.678;2023-10-31T09:28:24;3.53;;;3.22;;
37777;SDS011;23615;51.506;7.678;2023-10-31T09:30:49;4.37;;;3.77;;
37777;SDS011;23615;51.506;7.678;2023-10-31T09:33:15;3.70;;;3.40;;
37777;SDS011;23615;51.506;7.678;2023-10-31T09:35:40;4.23;;;3.13;;
37777;SDS011;23615;51.506;7.678;2023-10-31T09:38:05;3.30;;;3.07;;
37777;SDS011;23615;51.506;7.678;2023-10-31T09:40:31;3.95;;;3.30;;
37777;SDS011;23615;51.506;7.678;2023-10-31T09:42:56;3.83;;;3.43;;
37777;SDS011;23615;51.506;7.678;2023-10-31T09:45:21;3.13;;;2.80;;
37777;SDS011;23615;51.506;7.678;2023-10-31T09:47:47;2.83;;;2.63;;
37777;SDS011;23615;51.506;7.678;2023-10-31T09:50:12;5.00;;;3.07;;
37777;SDS011;23615;51.506;7.678;2023-10-31T09:52:38;3.20;;;2.90;;
37777;SDS011;23615;51.506;7.678;2023-10-31T09:55:04;4.00;;;2.70;;
37777;SDS011;23615;51.506;7.678;2023-10-31T09:57:30;3.40;;;2.60;;
37777;SDS011;23615;51.506;7.678;2023-10-31T09:59:56;3.00;;;2.70;;
37777;SDS011;23615;51.506;7.678;2023-10-31T10:02:21;3.03;;;2.20;;
37777;SDS011;23615;51.506;7.678;2023-10-31T10:04:47;3.45;;;2.30;;
37777;SDS011;23615;51.506;7.678;2023-10-31T10:07:13;2.77;;;2.07;;
37777;SDS011;23615;51.506;7.678;2023-10-31T10:09:41;2.75;;;2.17;;
37777;SDS011;23615;51.506;7.678;2023-10-31T10:12:07;2.88;;;2.30;;
37777;SDS011;23615;51.506;7.678;2023-10-31T10:14:36;3.30;;;2.40;;
37777;SDS011;23615;51.506;7.678;2023-10-31T10:17:02;2.45;;;2.25;;
37777;SDS011;23615;51.506;7.678;2023-10-31T10:19:39;3.33;;;2.22;;
37777;SDS011;23615;51.506;7.678;2023-10-31T10:22:04;4.43;;;2.60;;
37777;SDS011;23615;51.506;7.678;2023-10-31T10:24:30;4.23;;;3.00;;
37777;SDS011;23615;51.506;7.678;2023-10-31T10:26:55;4.23;;;3.00;;
37777;SDS011;23615;51.506;7.678;2023-10-31T10:29:20;3.57;;;2.77;;
37777;SDS011;23615;51.506;7.678;2023-10-31T10:31:45;3.70;;;2.63;;
37777;SDS011;23615;51.506;7.678;2023-10-31T10:34:13;3.60;;;2.78;;
37777;SDS011;23615;51.506;7.678;2023-10-31T10:36:39;5.27;;;2.60;;
37777;SDS011;23615;51.506;7.678;2023-10-31T10:39:04;3.53;;;2.27;;
37777;SDS011;23615;51.506;7.678;2023-10-31T10:41:32;4.35;;;2.40;;
37777;SDS011;23615;51.506;7.678;2023-10-31T10:46:31;4.35;;;2.10;;
37777;SDS011;23615;51.506;7.678;2023-10-31T10:48:58;3.75;;;2.33;;
37777;SDS011;23615;51.506;7.678;2023-10-31T10:54:14;4.97;;;2.50;;
37777;SDS011;23615;51.506;7.678;2023-10-31T10:56:46;2.45;;;2.25;;
37777;SDS011;23615;51.506;7.678;2023-10-31T10:59:20;3.17;;;2.53;;
37777;SDS011;23615;51.506;7.678;2023-10-31T11:01:51;2.75;;;2.08;;
37777;SDS011;23615;51.506;7.678;2023-10-31T11:04:17;3.88;;;1.80;;
37777;SDS011;23615;51.506;7.678;2023-10-31T11:06:44;2.72;;;1.92;;
37777;SDS011;23615;51.506;7.678;2023-10-31T11:09:10;2.53;;;1.70;;
37777;SDS011;23615;51.506;7.678;2023-10-31T11:11:37;3.40;;;1.90;;
37777;SDS011;23615;51.506;7.678;2023-10-31T11:14:03;3.80;;;2.38;;
37777;SDS011;23615;51.506;7.678;2023-10-31T11:16:39;4.00;;;2.20;;
37777;SDS011;23615;51.506;7.678;2023-10-31T11:19:09;4.47;;;2.55;;
37777;SDS011;23615;51.506;7.678;2023-10-31T11:21:36;4.05;;;2.70;;
37777;SDS011;23615;51.506;7.678;2023-10-31T11:24:01;4.07;;;2.90;;
37777;SDS011;23615;51.506;7.678;2023-10-31T11:26:27;4.85;;;2.38;;
37777;SDS011;23615;51.506;7.678;2023-10-31T11:29:02;4.30;;;2.70;;
37777;SDS011;23615;51.506;7.678;2023-10-31T11:31:30;2.87;;;1.87;;
37777;SDS011;23615;51.506;7.678;2023-10-31T11:33:55;4.53;;;2.35;;
37777;SDS011;23615;51.506;7.678;2023-10-31T11:36:21;3.37;;;2.30;;
37777;SDS011;23615;51.506;7.678;2023-10-31T11:38:47;4.07;;;2.43;;
37777;SDS011;23615;51.506;7.678;2023-10-31T11:41:12;3.87;;;2.70;;
37777;SDS011;23615;51.506;7.678;2023-10-31T11:46:05;3.83;;;2.28;;
37777;SDS011;23615;51.506;7.678;2023-10-31T11:48:49;4.47;;;2.60;;
37777;SDS011;23615;51.506;7.678;2023-10-31T11:51:16;3.03;;;2.40;;
37777;SDS011;23615;51.506;7.678;2023-10-31T11:53:42;3.97;;;2.88;;
37777;SDS011;23615;51.506;7.678;2023-10-31T11:56:09;5.40;;;2.72;;
37777;SDS011;23615;51.506;7.678;2023-10-31T11:58:35;3.78;;;2.70;;
37777;SDS011;23615;51.506;7.678;2023-10-31T12:01:01;4.40;;;3.03;;
37777;SDS011;23615;51.506;7.678;2023-10-31T12:03:42;3.97;;;2.25;;
37777;SDS011;23615;51.506;7.678;2023-10-31T12:06:12;5.73;;;2.80;;
37777;SDS011;23615;51.506;7.678;2023-10-31T12:08:39;4.47;;;2.47;;
37777;SDS011;23615;51.506;7.678;2023-10-31T12:11:12;3.60;;;2.23;;
37777;SDS011;23615;51.506;7.678;2023-10-31T12:13:59;6.70;;;2.30;;
37777;SDS011;23615;51.506;7.678;2023-10-31T12:16:27;4.75;;;2.22;;
37777;SDS011;23615;51.506;7.678;2023-10-31T12:18:54;3.40;;;1.85;;
37777;SDS011;23615;51.506;7.678;2023-10-31T12:21:42;4.63;;;2.20;;
37777;SDS011;23615;51.506;7.678;2023-10-31T12:24:15;2.63;;;1.73;;
37777;SDS011;23615;51.506;7.678;2023-10-31T12:26:41;2.75;;;2.10;;
37777;SDS011;23615;51.506;7.678;2023-10-31T12:34:10;4.95;;;2.03;;
37777;SDS011;23615;51.506;7.678;2023-10-31T12:36:36;3.60;;;1.52;;
37777;SDS011;23615;51.506;7.678;2023-10-31T12:39:05;3.07;;;1.37;;
37777;SDS011;23615;51.506;7.678;2023-10-31T12:41:34;5.23;;;1.67;;
37777;SDS011;23615;51.506;7.678;2023-10-31T12:44:00;3.25;;;1.60;;
37777;SDS011;23615;51.506;7.678;2023-10-31T12:46:29;3.40;;;1.30;;
37777;SDS011;23615;51.506;7.678;2023-10-31T12:48:56;2.83;;;1.23;;
37777;SDS011;23615;51.506;7.678;2023-10-31T12:51:24;3.60;;;1.52;;
37777;SDS011;23615;51.506;7.678;2023-10-31T12:53:50;3.17;;;1.40;;
37777;SDS011;23615;51.506;7.678;2023-10-31T12:56:38;2.67;;;1.07;;
37777;SDS011;23615;51.506;7.678;2023-10-31T12:59:05;2.43;;;1.20;;
37777;SDS011;23615;51.506;7.678;2023-10-31T13:01:41;5.55;;;1.48;;
37777;SDS011;23615;51.506;7.678;2023-10-31T13:04:08;4.90;;;1.85;;
37777;SDS011;23615;51.506;7.678;2023-10-31T13:06:34;5.13;;;1.55;;
37777;SDS011;23615;51.506;7.678;2023-10-31T13:08:59;3.83;;;1.15;;
37777;SDS011;23615;51.506;7.678;2023-10-31T13:11:31;3.08;;;1.20;;
37777;SDS011;23615;51.506;7.678;2023-10-31T13:13:57;2.72;;;0.80;;
37777;SDS011;23615;51.506;7.678;2023-10-31T13:16:23;2.67;;;0.70;;
37777;SDS011;23615;51.506;7.678;2023-10-31T13:18:48;2.00;;;0.80;;
37777;SDS011;23615;51.506;7.678;2023-10-31T13:21:14;4.33;;;0.53;;
37777;SDS011;23615;51.506;7.678;2023-10-31T13:23:41;3.80;;;0.80;;
37777;SDS011;23615;51.506;7.678;2023-10-31T13:26:10;1.90;;;0.40;;
37777;SDS011;23615;51.506;7.678;2023-10-31T13:28:35;3.30;;;0.70;;
37777;SDS011;23615;51.506;7.678;2023-10-31T13:31:00;1.87;;;0.50;;
37777;SDS011;23615;51.506;7.678;2023-10-31T13:33:27;3.97;;;0.80;;
37777;SDS011;23615;51.506;7.678;2023-10-31T13:35:52;3.20;;;0.60;;
37777;SDS011;23615;51.506;7.678;2023-10-31T13:38:17;2.63;;;0.60;;
37777;SDS011;23615;51.506;7.678;2023-10-31T13:40:43;1.10;;;0.50;;
37777;SDS011;23615;51.506;7.678;2023-10-31T13:43:08;1.90;;;0.50;;
37777;SDS011;23615;51.506;7.678;2023-10-31T13:45:34;3.20;;;0.67;;
37777;SDS011;23615;51.506;7.678;2023-10-31T13:47:59;0.63;;;0.47;;
37777;SDS011;23615;51.506;7.678;2023-10-31T13:50:24;3.77;;;0.60;;
37777;SDS011;23615;51.506;7.678;2023-10-31T13:52:50;3.22;;;0.63;;
37777;SDS011;23615;51.506;7.678;2023-10-31T13:55:15;3.77;;;0.70;;
37777;SDS011;23615;51.506;7.678;2023-10-31T13:57:40;1.53;;;0.50;;
37777;SDS011;23615;51.506;7.678;2023-10-31T14:00:06;2.97;;;0.60;;
37777;SDS011;23615;51.506;7.678;2023-10-31T14:02:33;2.67;;;0.50;;
37777;SDS011;23615;51.506;7.678;2023-10-31T14:05:00;2.17;;;0.55;;
37777;SDS011;23615;51.506;7.678;2023-10-31T14:07:25;2.83;;;0.50;;
37777;SDS011;23615;51.506;7.678;2023-10-31T14:09:51;2.37;;;0.50;;
37777;SDS011;23615;51.506;7.678;2023-10-31T14:12:17;1.48;;;0.40;;
37777;SDS011;23615;51.506;7.678;2023-10-31T14:14:43;2.83;;;0.40;;
37777;SDS011;23615;51.506;7.678;2023-10-31T14:17:08;2.50;;;0.45;;
37777;SDS011;23615;51.506;7.678;2023-10-31T14:19:34;2.05;;;0.73;;
37777;SDS011;23615;51.506;7.678;2023-10-31T14:22:00;1.77;;;0.40;;
37777;SDS011;23615;51.506;7.678;2023-10-31T14:24:26;3.03;;;0.43;;
37777;SDS011;23615;51.506;7.678;2023-10-31T14:26:51;2.00;;;0.43;;
37777;SDS011;23615;51.506;7.678;2023-10-31T14:29:16;2.80;;;0.70;;
37777;SDS011;23615;51.506;7.678;2023-10-31T14:31:41;3.40;;;0.43;;
37777;SDS011;23615;51.506;7.678;2023-10-31T14:34:07;1.27;;;0.50;;
37777;SDS011;23615;51.506;7.678;2023-10-31T14:36:32;1.93;;;0.57;;
37777;SDS011;23615;51.506;7.678;2023-10-31T14:38:58;0.67;;;0.40;;
37777;SDS011;23615;51.506;7.678;2023-10-31T14:41:23;2.05;;;0.45;;
37777;SDS011;23615;51.506;7.678;2023-10-31T14:43:49;3.00;;;0.40;;
37777;SDS011;23615;51.506;7.678;2023-10-31T14:46:14;3.27;;;0.50;;
37777;SDS011;23615;51.506;7.678;2023-10-31T14:48:40;2.63;;;0.47;;
37777;SDS011;23615;51.506;7.678;2023-10-31T14:51:05;2.60;;;0.50;;
37777;SDS011;23615;51.506;7.678;2023-10-31T14:53:30;1.27;;;0.40;;
37777;SDS011;23615;51.506;7.678;2023-10-31T14:55:56;1.20;;;0.40;;